Time;durP1;ratioP1;P1;durP2;ratioP2;P2;SDS_P1;SDS_P2;PMS_P1;PMS_P2;Temp;Humidity;BMP_temperature;BMP_pressure;BME280_temperature;BME280_humidity;BME280_pressure;Samples;Min_cycle;Max_cycle;Signal;HPM_P1;HPM_P2
2022/04/24 00:01:52;;;;;;;35.38;13.70;;;;;;;-149.78;100.00;50303.25;4879655;29;20033;-72
2022/04/24 00:04:17;;;;;;;34.40;13.68;;;;;;;-149.78;100.00;50365.84;4879682;29;20674;-71
2022/04/24 00:06:46;;;;;;;37.67;12.40;;;;;;;-149.78;100.00;50322.81;4880091;29;20039;-71
2022/04/24 00:09:15;;;;;;;42.20;13.10;;;;;;;-149.78;100.00;50334.53;4880200;29;20054;-71
2022/04/24 00:11:41;;;;;;;37.20;14.65;;;;;;;-149.78;100.00;50338.44;4881273;29;20054;-73
2022/04/24 00:14:10;;;;;;;39.13;12.57;;;;;;;-149.78;100.00;50350.19;4878948;29;20072;-71
2022/04/24 00:16:40;;;;;;;40.60;13.23;;;;;;;-149.78;100.00;50350.19;4880943;29;20044;-71
2022/04/24 00:19:06;;;;;;;38.28;12.98;;;;;;;-149.78;100.00;50342.38;4880750;29;20095;-71
2022/04/24 00:21:32;;;;;;;41.95;13.88;;;;;;;-149.78;100.00;50336.50;4880956;29;20040;-71
2022/04/24 00:23:58;;;;;;;36.28;14.50;;;;;;;-149.78;100.00;50342.38;4881119;29;20040;-71
2022/04/24 00:26:24;;;;;;;35.75;13.45;;;;;;;-149.78;100.00;50338.44;4885559;29;20064;-71
2022/04/24 00:28:50;;;;;;;46.00;14.48;;;;;;;-149.78;100.00;50324.75;4882890;29;20590;-71
2022/04/24 00:31:16;;;;;;;41.97;14.43;;;;;;;-149.78;100.00;50346.28;4878837;29;20106;-71
2022/04/24 00:33:42;;;;;;;44.03;13.85;;;;;;;-149.78;100.00;50336.50;4884772;29;20135;-71
2022/04/24 00:36:08;;;;;;;38.20;13.75;;;;;;;-149.78;100.00;50307.16;4884248;29;20490;-71
2022/04/24 00:38:35;;;;;;;36.90;13.50;;;;;;;-149.78;100.00;50381.47;4880851;29;20119;-71
2022/04/24 00:41:01;;;;;;;41.40;12.40;;;;;;;-149.78;100.00;50342.38;4880860;29;20040;-72
2022/04/24 00:43:27;;;;;;;38.03;12.50;;;;;;;-149.78;100.00;50334.53;4881039;29;20033;-71
2022/04/24 00:46:14;;;;;;;36.17;12.55;;;;;;;-149.78;100.00;50369.75;4879870;29;20048;-71
2022/04/24 00:48:42;;;;;;;45.25;12.02;;;;;;;-149.78;100.00;50330.63;4879147;29;20495;-71
2022/04/24 00:51:08;;;;;;;36.55;11.95;;;;;;;-149.78;100.00;50350.19;4880137;29;20104;-71
2022/04/24 00:53:35;;;;;;;44.53;12.52;;;;;;;-149.78;100.00;50369.75;4880537;29;20052;-72
2022/04/24 00:56:03;;;;;;;36.72;12.50;;;;;;;-149.78;100.00;50334.53;4879608;29;20079;-71
2022/04/24 00:58:30;;;;;;;35.53;11.80;;;;;;;-149.78;100.00;50365.84;4880407;29;20036;-72
2022/04/24 01:00:56;;;;;;;45.33;11.60;;;;;;;-149.78;100.00;50358.00;4880850;29;20060;-71
2022/04/24 01:03:23;;;;;;;35.65;11.57;;;;;;;-149.78;100.00;50338.44;4880891;29;20040;-71
2022/04/24 01:05:49;;;;;;;27.58;10.60;;;;;;;-149.78;100.00;50348.22;4880587;29;20111;-71
2022/04/24 01:08:14;;;;;;;37.83;11.38;;;;;;;-149.78;100.00;50354.09;4879441;29;20037;-71
2022/04/24 01:10:41;;;;;;;30.38;11.68;;;;;;;-149.78;100.00;50344.31;4880759;29;20041;-71
2022/04/24 01:13:07;;;;;;;42.45;10.95;;;;;;;-149.78;100.00;50350.19;4883194;29;20060;-71
2022/04/24 01:15:33;;;;;;;38.45;12.10;;;;;;;-149.78;100.00;50373.66;4883148;29;20122;-71
2022/04/24 01:18:00;;;;;;;38.47;10.80;;;;;;;-149.78;100.00;50338.44;4883788;29;20072;-71
2022/04/24 01:20:26;;;;;;;27.63;10.13;;;;;;;-149.78;100.00;50358.00;4883891;29;20556;-71
2022/04/24 01:22:52;;;;;;;35.65;11.13;;;;;;;-149.78;100.00;50389.31;4881750;29;20047;-71
2022/04/24 01:25:18;;;;;;;36.63;9.93;;;;;;;-149.78;100.00;50338.44;4883292;29;20074;-71
2022/04/24 01:27:44;;;;;;;38.60;10.52;;;;;;;-149.78;100.00;50322.81;4883133;29;20084;-71
2022/04/24 01:30:10;;;;;;;29.65;9.38;;;;;;;-149.78;100.00;50358.00;4883699;29;20048;-71
2022/04/24 01:32:38;;;;;;;32.15;9.68;;;;;;;-149.78;100.00;50358.00;4866473;29;20044;-71
2022/04/24 01:35:05;;;;;;;31.35;9.15;;;;;;;-149.78;100.00;50361.91;4883175;29;20127;-71
2022/04/24 01:37:31;;;;;;;41.55;9.30;;;;;;;-149.78;100.00;50361.91;4884066;29;20037;-71
2022/04/24 01:39:57;;;;;;;30.33;9.10;;;;;;;-149.78;100.00;50363.88;4883475;29;20047;-71
2022/04/24 01:42:24;;;;;;;37.03;8.63;;;;;;;-149.78;100.00;50367.78;4883621;29;20049;-71
2022/04/24 01:44:50;;;;;;;38.28;10.10;;;;;;;-149.78;100.00;50314.97;4883353;29;20020;-71
2022/04/24 01:47:16;;;;;;;33.03;9.13;;;;;;;-149.78;100.00;50369.75;4883782;29;20181;-72
2022/04/24 01:49:41;;;;;;;27.70;8.70;;;;;;;-149.78;100.00;50365.84;4882364;29;20100;-71
2022/04/24 01:52:07;;;;;;;30.60;7.88;;;;;;;-149.78;100.00;50371.69;4884609;29;20040;-71
2022/04/24 01:54:33;;;;;;;24.30;9.15;;;;;;;-149.78;100.00;50375.63;4882060;29;20069;-71
2022/04/24 01:56:58;;;;;;;37.63;8.77;;;;;;;-149.78;100.00;50350.19;4883242;29;20591;-71
2022/04/24 01:59:24;;;;;;;39.60;8.63;;;;;;;-149.78;100.00;50397.13;4882197;29;20044;-71
2022/04/24 02:01:50;;;;;;;34.90;9.75;;;;;;;-149.78;100.00;50334.53;4878503;29;20036;-71
2022/04/24 02:04:16;;;;;;;28.35;8.25;;;;;;;-149.78;100.00;50365.84;4879652;29;20107;-71
2022/04/24 02:06:42;;;;;;;32.78;8.25;;;;;;;-149.78;100.00;50381.47;4881875;29;20135;-71
2022/04/24 02:09:08;;;;;;;31.67;8.45;;;;;;;-149.78;100.00;50346.28;4880687;29;20042;-71
2022/04/24 02:11:34;;;;;;;40.70;8.68;;;;;;;-149.78;100.00;50365.84;4882985;29;20561;-72
2022/04/24 02:13:59;;;;;;;34.38;8.05;;;;;;;-149.78;100.00;50334.53;4866055;29;20103;-71
2022/04/24 02:16:25;;;;;;;30.88;7.18;;;;;;;-149.78;100.00;50369.75;4882335;29;20049;-71
2022/04/24 02:18:50;;;;;;;35.40;9.60;;;;;;;-149.78;100.00;50367.78;4881984;29;20492;-71
2022/04/24 02:21:16;;;;;;;26.45;7.15;;;;;;;-149.78;100.00;50350.19;4882277;29;20472;-71
2022/04/24 02:23:42;;;;;;;39.63;8.05;;;;;;;-149.78;100.00;50346.28;4863467;29;20128;-71
2022/04/24 02:26:07;;;;;;;28.33;7.32;;;;;;;-149.78;100.00;50381.47;4881332;29;20683;-70
2022/04/24 02:28:34;;;;;;;32.35;7.38;;;;;;;-149.78;100.00;50342.38;4881170;29;20060;-71
2022/04/24 02:31:00;;;;;;;42.17;7.70;;;;;;;-149.78;100.00;50397.13;4881937;29;20052;-71
2022/04/24 02:33:25;;;;;;;33.08;6.57;;;;;;;-149.78;100.00;50389.31;4880945;29;20040;-71
2022/04/24 02:35:51;;;;;;;29.60;6.78;;;;;;;-149.78;100.00;50365.84;4881762;29;20039;-71
2022/04/24 02:38:16;;;;;;;30.42;7.57;;;;;;;-149.78;100.00;50336.50;4880692;29;20404;-71
2022/04/24 02:40:42;;;;;;;47.00;8.30;;;;;;;-149.78;100.00;50350.19;4881223;29;20067;-71
2022/04/24 02:43:07;;;;;;;35.60;7.72;;;;;;;-149.78;100.00;50369.75;4864375;29;20092;-71
2022/04/24 02:45:33;;;;;;;31.17;7.47;;;;;;;-149.78;100.00;50367.78;4884716;29;20409;-71
2022/04/24 02:47:58;;;;;;;29.38;6.93;;;;;;;-149.78;100.00;50397.13;4880755;29;20128;-71
2022/04/24 02:50:24;;;;;;;39.35;7.50;;;;;;;-149.78;100.00;50336.50;4881120;29;20079;-71
2022/04/24 02:52:55;;;;;;;24.65;6.40;;;;;;;-149.78;100.00;50393.22;4880608;29;20047;-73
2022/04/24 02:55:22;;;;;;;27.05;6.75;;;;;;;-149.78;100.00;50359.97;4881780;29;20052;-71
2022/04/24 02:57:48;;;;;;;43.40;7.30;;;;;;;-149.78;100.00;50326.72;4881104;29;20044;-71
2022/04/24 03:00:24;;;;;;;27.58;6.78;;;;;;;-149.78;100.00;50377.56;4881030;29;20105;-71
2022/04/24 03:02:51;;;;;;;34.08;8.10;;;;;;;-149.78;100.00;50365.84;4879535;29;20032;-71
2022/04/24 03:05:19;;;;;;;34.47;7.50;;;;;;;-149.78;100.00;50350.19;4880887;29;20067;-71
2022/04/24 03:07:46;;;;;;;36.28;8.23;;;;;;;-149.78;100.00;50350.19;4881262;29;20445;-72
2022/04/24 03:10:12;;;;;;;27.02;6.55;;;;;;;-149.78;100.00;50359.97;4882828;29;20047;-71
2022/04/24 03:12:40;;;;;;;30.02;6.70;;;;;;;-149.78;100.00;50389.31;4883743;29;20103;-71
2022/04/24 03:15:09;;;;;;;27.30;6.68;;;;;;;-149.78;100.00;50307.16;4881199;29;20051;-71
2022/04/24 03:17:36;;;;;;;40.83;8.43;;;;;;;-149.78;100.00;50354.09;4865525;29;20040;-71
2022/04/24 03:20:06;;;;;;;32.83;7.18;;;;;;;-149.78;100.00;50354.09;4882359;29;20110;-71
2022/04/24 03:22:33;;;;;;;29.88;7.38;;;;;;;-149.78;100.00;50358.00;4883226;29;20048;-71
2022/04/24 03:25:07;;;;;;;35.10;6.93;;;;;;;-149.78;100.00;50350.19;4883525;29;20048;-72
2022/04/24 03:27:33;;;;;;;37.63;8.07;;;;;;;-149.78;100.00;50377.56;4890923;29;20032;-71
2022/04/24 03:29:59;;;;;;;32.90;7.72;;;;;;;-149.78;100.00;50389.31;4892274;29;20645;-71
2022/04/24 03:32:25;;;;;;;34.97;7.25;;;;;;;-149.78;100.00;50365.84;4884193;29;20846;-71
2022/04/24 03:34:51;;;;;;;30.80;8.13;;;;;;;-149.78;100.00;50395.16;4865499;29;20041;-71
2022/04/24 03:37:18;;;;;;;31.52;8.32;;;;;;;-149.78;100.00;50367.78;4882882;29;20052;-71
2022/04/24 03:39:44;;;;;;;35.58;9.32;;;;;;;-149.78;100.00;50358.00;4882517;29;20104;-71
2022/04/24 03:42:10;;;;;;;33.22;7.57;;;;;;;-149.78;100.00;50381.47;4882085;29;20040;-71
2022/04/24 03:44:35;;;;;;;34.28;8.63;;;;;;;-149.78;100.00;50373.66;4882101;29;20017;-71
2022/04/24 03:47:01;;;;;;;29.98;7.60;;;;;;;-149.78;100.00;50354.09;4880739;29;20052;-70
2022/04/24 03:49:27;;;;;;;33.97;7.57;;;;;;;-149.78;100.00;50342.38;4898611;29;20032;-71
2022/04/24 03:51:53;;;;;;;31.83;9.23;;;;;;;-149.78;100.00;50322.81;4883523;29;20037;-72
2022/04/24 03:54:19;;;;;;;41.40;9.30;;;;;;;-149.78;100.00;50371.69;4882382;29;20073;-71
2022/04/24 03:56:45;;;;;;;29.55;7.88;;;;;;;-149.78;100.00;50371.69;4882008;29;20055;-71
2022/04/24 03:59:11;;;;;;;29.40;7.22;;;;;;;-149.78;100.00;50330.63;4881632;29;20044;-70
2022/04/24 04:01:37;;;;;;;42.08;8.32;;;;;;;-149.78;100.00;50381.47;4882087;29;20053;-71
2022/04/24 04:04:02;;;;;;;41.05;8.88;;;;;;;-149.78;100.00;50371.69;4882361;29;20061;-71
2022/04/24 04:06:28;;;;;;;29.65;7.40;;;;;;;-149.78;100.00;50346.28;4880424;29;20040;-71
2022/04/24 04:08:54;;;;;;;29.05;7.93;;;;;;;-149.78;100.00;50338.44;4880353;29;20028;-71
2022/04/24 04:11:19;;;;;;;34.53;8.38;;;;;;;-149.78;100.00;50361.91;4878440;29;20131;-72
2022/04/24 04:13:51;;;;;;;43.70;7.87;;;;;;;-149.78;100.00;50385.38;4881123;29;20044;-71
2022/04/24 04:16:16;;;;;;;32.35;7.88;;;;;;;-149.78;100.00;50361.91;4878663;29;20104;-71
2022/04/24 04:18:43;;;;;;;35.13;8.38;;;;;;;-149.78;100.00;50373.66;4878556;29;20041;-71
2022/04/24 04:21:09;;;;;;;34.85;7.93;;;;;;;-149.78;100.00;50359.97;4878999;29;20041;-71
2022/04/24 04:23:34;;;;;;;32.92;7.90;;;;;;;-149.78;100.00;50361.91;4879511;29;20042;-71
2022/04/24 04:26:00;;;;;;;34.33;9.32;;;;;;;-149.78;100.00;50358.00;4878352;29;20040;-71
2022/04/24 04:28:25;;;;;;;46.60;8.68;;;;;;;-149.78;100.00;50408.84;4878728;29;20701;-71
2022/04/24 04:30:51;;;;;;;35.22;8.63;;;;;;;-149.78;100.00;50381.47;4878098;29;20037;-71
2022/04/24 04:33:18;;;;;;;36.38;8.05;;;;;;;-149.78;100.00;50359.97;4882572;29;20033;-71
2022/04/24 04:35:43;;;;;;;30.65;6.68;;;;;;;-149.78;100.00;50373.66;4885933;29;20051;-71
2022/04/24 04:38:09;;;;;;;31.02;7.93;;;;;;;-149.78;100.00;50324.75;4885207;29;20072;-71
2022/04/24 04:40:35;;;;;;;27.05;6.60;;;;;;;-149.78;100.00;50403.00;4885555;29;20040;-72
2022/04/24 04:43:01;;;;;;;31.10;5.40;;;;;;;-149.78;100.00;50389.31;4880036;29;20055;-71
2022/04/24 04:45:27;;;;;;;24.23;6.68;;;;;;;-149.78;100.00;50344.31;4880159;29;20064;-71
2022/04/24 04:47:52;;;;;;;37.63;7.60;;;;;;;-149.78;100.00;50369.75;4884078;29;20858;-71
2022/04/24 04:50:18;;;;;;;29.13;6.13;;;;;;;-149.78;100.00;50383.44;4877308;29;20055;-71
2022/04/24 04:52:45;;;;;;;25.10;6.50;;;;;;;-149.78;100.00;50359.97;4881502;29;20582;-71
2022/04/24 04:55:11;;;;;;;23.27;6.15;;;;;;;-149.78;100.00;50377.56;4882852;29;20128;-71
2022/04/24 04:57:38;;;;;;;28.88;6.68;;;;;;;-149.78;100.00;50354.09;4883625;29;20033;-71
2022/04/24 05:00:08;;;;;;;36.88;6.97;;;;;;;-149.78;100.00;50350.19;4883249;29;20076;-71
2022/04/24 05:02:40;;;;;;;31.65;7.15;;;;;;;-149.78;100.00;50365.84;4883367;29;20051;-71
2022/04/24 05:05:08;;;;;;;27.67;6.80;;;;;;;-149.78;100.00;50361.91;4882488;29;20119;-71
2022/04/24 05:07:34;;;;;;;30.02;6.60;;;;;;;-149.78;100.00;50369.75;4882275;29;20040;-71
2022/04/24 05:10:00;;;;;;;27.73;5.32;;;;;;;-149.78;100.00;50363.88;4882768;29;20153;-71
2022/04/24 05:12:30;;;;;;;27.05;6.03;;;;;;;-149.78;100.00;50381.47;4881663;29;20044;-71
2022/04/24 05:15:09;;;;;;;26.63;5.88;;;;;;;-149.78;100.00;50379.53;4880757;29;20052;-71
2022/04/24 05:17:36;;;;;;;25.42;5.78;;;;;;;-149.78;100.00;50373.66;4881472;29;20041;-71
2022/04/24 05:20:06;;;;;;;33.40;6.38;;;;;;;-149.78;100.00;50381.47;4882981;29;20037;-71
2022/04/24 05:22:32;;;;;;;30.55;7.78;;;;;;;-149.78;100.00;50408.84;4881206;29;20119;-71
2022/04/24 05:24:58;;;;;;;29.83;7.28;;;;;;;-149.78;100.00;50381.47;4880984;29;20069;-71
2022/04/24 05:27:24;;;;;;;35.35;6.07;;;;;;;-149.78;100.00;50381.47;4883400;29;20037;-71
2022/04/24 05:29:49;;;;;;;26.17;6.70;;;;;;;-149.78;100.00;50379.53;4882664;29;20048;-71
2022/04/24 05:32:16;;;;;;;30.52;6.18;;;;;;;-149.78;100.00;50428.41;4882548;29;20055;-71
2022/04/24 05:34:41;;;;;;;33.53;6.80;;;;;;;-149.78;100.00;50348.22;4866030;29;20058;-71
2022/04/24 05:37:07;;;;;;;29.58;7.22;;;;;;;-149.78;100.00;50334.53;4882014;29;20039;-71
2022/04/24 05:39:33;;;;;;;30.92;6.50;;;;;;;-149.78;100.00;50385.38;4883233;29;20036;-71
2022/04/24 05:41:59;;;;;;;32.05;6.68;;;;;;;-149.78;100.00;50369.75;4882483;29;20803;-71
2022/04/24 05:44:25;;;;;;;29.15;6.63;;;;;;;-149.78;100.00;50389.31;4883199;29;20037;-71
2022/04/24 05:46:50;;;;;;;34.25;6.30;;;;;;;-149.78;100.00;50361.91;4883811;29;20055;-71
2022/04/24 05:49:17;;;;;;;24.17;6.57;;;;;;;-149.78;100.00;50367.78;4883147;29;20036;-71
2022/04/24 05:51:42;;;;;;;31.10;8.85;;;;;;;-149.78;100.00;50350.19;4881738;29;20076;-71
2022/04/24 05:54:11;;;;;;;28.65;6.57;;;;;;;-149.78;100.00;50389.31;4881927;29;20047;-71
2022/04/24 05:56:41;;;;;;;32.95;7.38;;;;;;;-149.78;100.00;50369.75;4880757;29;20516;-71
2022/04/24 05:59:11;;;;;;;30.92;6.43;;;;;;;-149.78;100.00;50365.84;4881063;29;20047;-71
2022/04/24 06:01:37;;;;;;;29.92;7.30;;;;;;;-149.78;100.00;50342.38;4880840;29;20033;-71
2022/04/24 06:04:03;;;;;;;20.20;6.68;;;;;;;-149.78;100.00;50361.91;4881873;29;20384;-71
2022/04/24 06:06:31;;;;;;;23.00;7.30;;;;;;;-149.78;100.00;50403.00;4882135;29;20029;-71
2022/04/24 06:08:57;;;;;;;44.00;6.97;;;;;;;-149.78;100.00;50381.47;4881861;29;20032;-71
2022/04/24 06:11:23;;;;;;;26.05;7.00;;;;;;;-149.78;100.00;50404.94;4881718;29;20041;-71
2022/04/24 06:13:49;;;;;;;25.67;6.90;;;;;;;-149.78;100.00;50350.19;4881952;29;20429;-71
2022/04/24 06:16:14;;;;;;;35.97;9.32;;;;;;;-149.78;100.00;50361.91;4881501;29;20040;-70
2022/04/24 06:18:40;;;;;;;33.72;7.47;;;;;;;-149.78;100.00;50350.19;4881505;29;20497;-71
2022/04/24 06:21:06;;;;;;;27.42;7.00;;;;;;;-149.78;100.00;50385.38;4882159;29;20392;-72
2022/04/24 06:23:32;;;;;;;23.83;6.90;;;;;;;-149.78;100.00;50401.03;4882735;29;20043;-72
2022/04/24 06:25:58;;;;;;;22.73;5.88;;;;;;;-149.78;100.00;50365.84;4878804;29;20467;-72
2022/04/24 06:28:24;;;;;;;28.00;6.75;;;;;;;-149.78;100.00;50348.22;4880303;29;20044;-72
2022/04/24 06:30:50;;;;;;;26.98;6.75;;;;;;;-149.78;100.00;50381.47;4879705;29;20059;-72
2022/04/24 06:33:17;;;;;;;28.67;6.30;;;;;;;-149.78;100.00;50373.66;4880772;29;20485;-71
2022/04/24 06:35:45;;;;;;;31.70;6.60;;;;;;;-149.78;100.00;50350.19;4881354;29;20036;-72
2022/04/24 06:38:11;;;;;;;25.90;6.35;;;;;;;-149.78;100.00;50342.38;4882922;29;20048;-67
2022/04/24 06:40:37;;;;;;;24.30;6.30;;;;;;;-149.78;100.00;50330.63;4881371;29;20041;-72
2022/04/24 06:43:05;;;;;;;19.58;6.05;;;;;;;-149.78;100.00;50359.97;4881172;29;20047;-71
2022/04/24 06:45:41;;;;;;;24.85;6.10;;;;;;;-149.78;100.00;50377.56;4880813;29;20056;-71
2022/04/24 06:48:12;;;;;;;30.63;6.55;;;;;;;-149.78;100.00;50358.00;4881950;29;20040;-70
2022/04/24 06:50:40;;;;;;;24.77;7.05;;;;;;;-149.78;100.00;50365.84;4880150;29;21022;-71
2022/04/24 06:53:11;;;;;;;34.30;7.38;;;;;;;-149.78;100.00;50387.34;4878585;29;20036;-71
2022/04/24 06:55:39;;;;;;;22.25;6.03;;;;;;;-149.78;100.00;50365.84;4880598;29;20580;-70
2022/04/24 06:58:06;;;;;;;23.25;6.45;;;;;;;-149.78;100.00;50356.06;4893985;29;20055;-71
2022/04/24 07:00:34;;;;;;;27.30;6.78;;;;;;;-149.78;100.00;50324.75;4880220;29;20051;-71
2022/04/24 07:03:00;;;;;;;25.33;6.45;;;;;;;-149.78;100.00;50383.44;4878760;29;20131;-70
2022/04/24 07:05:27;;;;;;;30.50;6.55;;;;;;;-149.78;100.00;50354.09;4878624;29;20575;-71
2022/04/24 07:07:53;;;;;;;25.75;7.65;;;;;;;-149.78;100.00;50346.28;4878217;29;20063;-70
2022/04/24 07:10:20;;;;;;;32.67;7.05;;;;;;;-149.78;100.00;50373.66;4879598;29;20140;-71
2022/04/24 07:12:45;;;;;;;25.20;7.20;;;;;;;-149.78;100.00;50342.38;4877430;29;20040;-71
2022/04/24 07:15:13;;;;;;;24.52;6.85;;;;;;;-149.78;100.00;50363.88;4879924;29;20044;-70
2022/04/24 07:17:40;;;;;;;30.08;7.40;;;;;;;-149.78;100.00;50365.84;4862544;29;20552;-70
2022/04/24 07:20:07;;;;;;;17.95;6.78;;;;;;;-149.78;100.00;50330.63;4875509;29;20060;-70
2022/04/24 07:23:02;;;;;;;33.08;9.57;;;;;;;-149.78;100.00;50328.69;4877660;29;20048;-72
2022/04/24 07:25:33;;;;;;;17.15;7.20;;;;;;;-149.78;100.00;50326.72;4862006;29;20408;-70
2022/04/24 07:27:59;;;;;;;23.17;7.13;;;;;;;-149.78;100.00;50350.19;4867336;29;20044;-71
2022/04/24 07:30:25;;;;;;;20.05;6.68;;;;;;;-149.78;100.00;50320.84;4868694;29;20044;-70
2022/04/24 07:32:53;;;;;;;23.98;7.72;;;;;;;-149.78;100.00;50330.63;4867933;29;20070;-70
2022/04/24 07:35:21;;;;;;;27.08;6.82;;;;;;;-149.78;100.00;50291.50;4884685;29;20037;-70
2022/04/24 07:37:47;;;;;;;27.38;7.22;;;;;;;-149.78;100.00;50326.72;4884544;29;20098;-70
2022/04/24 07:40:15;;;;;;;22.75;7.03;;;;;;;-149.78;100.00;50309.13;4884189;29;20025;-69
2022/04/24 07:42:48;;;;;;;34.00;7.10;;;;;;;-149.78;100.00;50291.50;4883031;29;20048;-70
2022/04/24 07:45:30;;;;;;;28.05;7.60;;;;;;;-149.78;100.00;50314.97;4882086;29;20100;-70
2022/04/24 07:47:57;;;;;;;26.08;7.53;;;;;;;-149.78;100.00;50289.56;4878311;29;20127;-69
2022/04/24 07:50:25;;;;;;;17.05;6.63;;;;;;;-149.78;100.00;50291.50;4880047;29;20049;-70
2022/04/24 07:52:52;;;;;;;28.42;7.45;;;;;;;-149.78;100.00;50287.59;4877578;29;20062;-71
2022/04/24 07:55:22;;;;;;;21.98;8.05;;;;;;;-149.78;100.00;50322.81;4876973;29;20064;-71
2022/04/24 07:57:48;;;;;;;25.92;8.43;;;;;;;-149.78;100.00;50377.56;4878368;29;20064;-71
2022/04/24 08:00:16;;;;;;;23.48;8.05;;;;;;;-149.78;100.00;50307.16;4878018;29;20225;-68
2022/04/24 08:02:48;;;;;;;24.98;7.70;;;;;;;-149.78;100.00;50299.34;4877389;29;20032;-70
2022/04/24 08:05:22;;;;;;;32.05;8.32;;;;;;;-149.78;100.00;50307.16;4878097;29;20092;-70
2022/04/24 08:07:48;;;;;;;20.17;8.25;;;;;;;-149.78;100.00;50338.44;4878820;29;20068;-70
2022/04/24 08:10:15;;;;;;;24.08;8.40;;;;;;;-149.78;100.00;50350.19;4878989;29;20603;-70
2022/04/24 08:12:41;;;;;;;26.75;8.75;;;;;;;-149.78;100.00;50277.81;4878919;29;20040;-70
2022/04/24 08:15:07;;;;;;;24.88;8.95;;;;;;;-149.78;100.00;50338.44;4862196;29;20071;-70
2022/04/24 08:17:33;;;;;;;29.42;9.52;;;;;;;-149.78;100.00;50299.34;4879333;29;20116;-70
2022/04/24 08:19:59;;;;;;;24.02;8.95;;;;;;;-149.78;100.00;50301.28;4878663;29;20044;-70
2022/04/24 08:22:25;;;;;;;22.92;9.63;;;;;;;-149.78;100.00;50311.06;4878802;29;20083;-71
2022/04/24 08:24:51;;;;;;;29.98;9.32;;;;;;;-149.78;100.00;50303.25;4878007;29;20056;-70
2022/04/24 08:27:17;;;;;;;29.27;9.48;;;;;;;-149.78;100.00;50270.00;4862831;29;20135;-71
2022/04/24 08:29:43;;;;;;;24.33;8.35;;;;;;;-149.78;100.00;50248.50;4877601;29;20076;-71
2022/04/24 08:32:09;;;;;;;30.17;8.70;;;;;;;-149.78;100.00;50252.41;4863217;29;20465;-70
2022/04/24 08:34:34;;;;;;;23.80;8.82;;;;;;;-149.78;100.00;50252.41;4878331;29;20080;-69
2022/04/24 08:37:00;;;;;;;22.25;7.28;;;;;;;-149.78;100.00;50189.81;4878007;29;20036;-70
2022/04/24 08:39:27;;;;;;;19.73;7.18;;;;;;;-149.78;100.00;50201.56;4880393;29;20037;-69
2022/04/24 08:41:53;;;;;;;16.20;7.05;;;;;;;-149.78;100.00;50189.81;4878736;29;20618;-71
2022/04/24 08:44:20;;;;;;;21.17;7.63;;;;;;;-149.78;100.00;50162.44;4876735;29;20047;-70
2022/04/24 08:46:46;;;;;;;14.18;6.03;;;;;;;-149.78;100.00;50166.34;4860036;29;20116;-71
2022/04/24 08:49:12;;;;;;;10.80;4.97;;;;;;;-149.78;100.00;50088.13;4877403;29;20147;-71
2022/04/24 08:51:40;;;;;;;23.25;5.93;;;;;;;-149.78;100.00;50119.41;4861474;29;20930;-69
2022/04/24 08:54:05;;;;;;;10.98;5.03;;;;;;;-149.78;100.00;50088.13;4877004;29;20091;-71
2022/04/24 08:56:31;;;;;;;13.95;5.30;;;;;;;-149.78;100.00;50080.31;4876899;29;20040;-72
2022/04/24 08:58:57;;;;;;;14.48;5.55;;;;;;;-149.78;100.00;50172.22;4876308;29;20056;-71
2022/04/24 09:01:23;;;;;;;11.77;5.03;;;;;;;-149.78;100.00;50119.41;4875742;29;20045;-70
2022/04/24 09:03:49;;;;;;;10.02;4.10;;;;;;;-149.78;100.00;50115.50;4878495;29;20029;-69
2022/04/24 09:06:22;;;;;;;10.50;4.40;;;;;;;-149.78;100.00;50115.50;4862202;29;20045;-69
2022/04/24 09:08:48;;;;;;;12.73;4.50;;;;;;;-149.78;91.14;50131.16;4879160;29;20041;-70
2022/04/24 09:11:14;;;;;;;12.13;4.60;;;;;;;-149.78;85.45;50095.94;4878069;29;20416;-70
2022/04/24 09:16:37;;;;;;;12.32;4.38;;;;;;;-149.78;74.20;50097.91;4879253;29;20041;-70
2022/04/24 09:19:14;;;;;;;12.82;3.92;;;;;;;-149.78;72.05;50111.59;4879462;29;20032;-70
2022/04/24 09:21:40;;;;;;;10.25;3.65;;;;;;;-149.78;67.86;50099.88;4879703;29;20044;-70
2022/04/24 09:24:06;;;;;;;9.18;3.47;;;;;;;-149.78;67.25;50095.94;4879262;29;20044;-70
2022/04/24 09:26:33;;;;;;;8.55;3.58;;;;;;;-149.78;64.26;50107.69;4863533;29;20709;-70
2022/04/24 09:28:59;;;;;;;7.80;3.22;;;;;;;-149.78;60.29;50123.34;4880023;29;20151;-71
2022/04/24 09:31:29;;;;;;;10.18;3.50;;;;;;;-149.78;69.47;50174.19;4881463;29;20052;-70
2022/04/24 09:33:55;;;;;;;10.27;3.42;;;;;;;-149.78;78.63;50185.91;4882264;29;20072;-70
2022/04/24 09:36:25;;;;;;;11.70;4.05;;;;;;;-149.78;81.01;50176.13;4884093;29;20044;-70
2022/04/24 09:38:50;;;;;;;9.27;3.75;;;;;;;-149.78;75.31;50180.03;4883194;29;20764;-69
2022/04/24 09:41:21;;;;;;;12.63;3.58;;;;;;;-149.78;74.50;50170.25;4883447;29;20108;-70
2022/04/24 09:43:48;;;;;;;9.02;3.13;;;;;;;-149.78;73.55;50213.28;4884098;29;20116;-70
2022/04/24 09:46:27;;;;;;;9.20;3.25;;;;;;;-149.78;83.16;50268.03;4882532;29;20067;-70
2022/04/24 09:48:53;;;;;;;15.15;3.55;;;;;;;-149.78;86.01;50226.97;4883400;29;20092;-70
2022/04/24 09:51:20;;;;;;;11.27;3.55;;;;;;;-149.78;81.91;50240.66;4883130;29;20028;-70
2022/04/24 09:53:47;;;;;;;6.22;3.13;;;;;;;-149.78;78.96;50225.03;4882229;29;20047;-70
2022/04/24 09:56:17;;;;;;;11.60;2.92;;;;;;;-149.78;67.04;50209.38;4883412;29;20654;-70
2022/04/24 09:58:44;;;;;;;12.30;3.38;;;;;;;-149.78;63.22;50178.09;4866642;29;20081;-70
2022/04/24 10:01:10;;;;;;;9.10;3.03;;;;;;;-149.78;64.16;50197.66;4883098;29;20727;-70
2022/04/24 10:03:39;;;;;;;8.95;2.95;;;;;;;-149.78;64.54;50195.69;4883520;29;20040;-70
2022/04/24 10:06:07;;;;;;;6.70;2.88;;;;;;;-149.78;63.94;50234.81;4883902;29;20413;-70
2022/04/24 10:08:34;;;;;;;12.70;3.63;;;;;;;-149.78;64.14;50221.13;4883706;29;20788;-70
2022/04/24 10:11:06;;;;;;;7.75;2.85;;;;;;;-149.78;65.62;50201.56;4882498;29;20048;-70
2022/04/24 10:13:41;;;;;;;9.70;2.95;;;;;;;-149.78;65.24;50201.56;4882809;29;20132;-70
2022/04/24 10:16:30;;;;;;;10.13;3.42;;;;;;;-149.78;64.15;50158.53;4882612;29;20058;-70
2022/04/24 10:19:36;;;;;;;9.20;2.78;;;;;;;-149.78;56.88;50119.41;4880167;29;20036;-71
2022/04/24 10:22:06;;;;;;;6.70;2.53;;;;;;;-149.78;52.49;50107.69;4872649;29;20049;-71
2022/04/24 10:24:40;;;;;;;10.77;2.58;;;;;;;-149.78;49.74;50092.03;4881860;29;20051;-70
2022/04/24 10:27:07;;;;;;;4.35;2.22;;;;;;;-149.78;51.46;50111.59;4879869;29;20067;-71
2022/04/24 10:29:33;;;;;;;5.82;2.80;;;;;;;-149.78;50.00;50137.03;4884096;29;20064;-70
2022/04/24 10:31:59;;;;;;;8.07;3.22;;;;;;;-149.78;52.72;50170.25;4883152;29;20047;-70
2022/04/24 10:34:26;;;;;;;8.68;3.83;;;;;;;-149.78;54.28;50178.09;4881175;29;20032;-70
2022/04/24 10:37:04;;;;;;;7.72;3.53;;;;;;;-149.78;55.30;50221.13;4881087;29;20044;-69
2022/04/24 10:39:37;;;;;;;7.97;3.17;;;;;;;-149.78;56.81;50226.97;4880560;29;20039;-69
2022/04/24 10:42:08;;;;;;;8.80;3.35;;;;;;;-149.78;57.41;50185.91;4880536;29;20029;-70
2022/04/24 10:44:34;;;;;;;4.60;2.80;;;;;;;-149.78;58.57;50158.53;4880173;29;20032;-70
2022/04/24 10:47:10;;;;;;;7.25;2.80;;;;;;;-149.78;58.74;50236.75;4879493;29;20120;-69
2022/04/24 10:49:36;;;;;;;8.27;3.10;;;;;;;-149.78;59.40;50189.81;4881731;29;20041;-70
2022/04/24 10:52:04;;;;;;;11.30;3.75;;;;;;;-149.78;58.28;50182.00;4881010;29;20035;-70
2022/04/24 10:54:31;;;;;;;7.32;3.25;;;;;;;-149.78;57.29;50154.63;4881447;29;20033;-70
2022/04/24 10:56:58;;;;;;;10.63;2.50;;;;;;;-149.78;56.32;50182.00;4881900;29;20041;-70
2022/04/24 10:59:23;;;;;;;6.60;3.10;;;;;;;-149.78;55.03;50164.41;4880401;29;20044;-70
2022/04/24 11:01:53;;;;;;;9.38;3.13;;;;;;;-149.78;55.21;50154.63;4881730;29;20048;-70
2022/04/24 11:04:20;;;;;;;6.40;3.30;;;;;;;-149.78;55.85;50178.09;4881532;29;20546;-70
2022/04/24 11:06:54;;;;;;;6.85;3.10;;;;;;;-149.78;56.43;50183.97;4879452;29;20726;-70